Time;durP1;ratioP1;P1;durP2;ratioP2;P2;SDS_P1;SDS_P2;PMS_P1;PMS_P2;Temp;Humidity;BMP_temperature;BMP_pressure;BME280_temperature;BME280_humidity;BME280_pressure;Samples;Min_cycle;Max_cycle;Signal;HPM_P1;HPM_P2
2022/06/23 00:00:35;;;;;;;5.70;5.10;;;13.50;99.90;;;;;;5051651;28;20045;-71
2022/06/23 00:03:03;;;;;;;5.40;4.75;;;13.50;99.90;;;;;;5052561;28;20055;-70
2022/06/23 00:05:39;;;;;;;5.38;4.88;;;13.50;99.90;;;;;;5053225;28;20395;-70
2022/06/23 00:08:09;;;;;;;6.38;5.40;;;13.50;99.90;;;;;;5036230;28;20052;-70
2022/06/23 00:10:43;;;;;;;6.25;5.50;;;13.50;99.90;;;;;;5036646;28;20052;-70
2022/06/23 00:13:32;;;;;;;7.32;5.53;;;13.40;99.90;;;;;;5053170;28;20102;-71
2022/06/23 00:15:58;;;;;;;7.40;5.38;;;13.40;99.90;;;;;;5052637;28;20063;-70
2022/06/23 00:18:31;;;;;;;5.18;4.53;;;13.40;99.90;;;;;;5052772;28;20036;-70
2022/06/23 00:21:20;;;;;;;5.55;5.00;;;13.40;99.90;;;;;;5067906;28;20083;-70
2022/06/23 00:23:50;;;;;;;6.40;5.80;;;13.40;99.90;;;;;;5039837;28;20441;-70
2022/06/23 00:26:28;;;;;;;6.40;5.75;;;13.30;99.90;;;;;;5047633;28;20033;-72
2022/06/23 00:29:14;;;;;;;5.72;5.03;;;13.30;99.90;;;;;;5049722;28;20070;-70
2022/06/23 00:31:44;;;;;;;7.15;5.75;;;13.20;99.90;;;;;;5051167;28;20437;-71
2022/06/23 00:34:20;;;;;;;5.90;5.30;;;13.10;99.90;;;;;;5070322;28;20485;-70
2022/06/23 00:36:54;;;;;;;6.20;5.60;;;13.10;99.90;;;;;;5052227;28;20048;-70
2022/06/23 00:39:46;;;;;;;6.78;5.90;;;13.00;99.90;;;;;;5067001;28;20378;-71
2022/06/23 00:42:25;;;;;;;7.07;6.43;;;13.00;99.90;;;;;;5009761;28;20072;-71
2022/06/23 00:45:19;;;;;;;5.55;5.05;;;12.90;99.90;;;;;;5051820;28;20182;-71
2022/06/23 00:48:06;;;;;;;6.85;6.15;;;12.90;99.90;;;;;;5051785;28;20036;-71
2022/06/23 00:50:48;;;;;;;8.88;6.50;;;13.00;99.90;;;;;;5051544;28;20513;-71
2022/06/23 00:53:30;;;;;;;6.75;6.15;;;13.00;99.90;;;;;;5048559;28;20037;-70
2022/06/23 00:56:19;;;;;;;6.85;6.22;;;12.90;99.90;;;;;;5067702;28;20068;-72
2022/06/23 00:59:09;;;;;;;7.80;7.00;;;12.90;99.90;;;;;;5052464;28;20072;-72
2022/06/23 01:01:57;;;;;;;8.05;6.50;;;12.90;99.90;;;;;;5035604;28;20067;-71
2022/06/23 01:04:47;;;;;;;8.48;7.07;;;12.80;99.90;;;;;;5038622;28;20055;-71
2022/06/23 01:07:47;;;;;;;9.50;7.57;;;12.80;99.90;;;;;;5034914;28;20483;-71
2022/06/23 01:10:43;;;;;;;8.52;6.90;;;12.70;99.90;;;;;;5051826;28;20103;-72
2022/06/23 01:13:28;;;;;;;9.07;7.35;;;12.60;99.90;;;;;;5054914;28;20060;-72
2022/06/23 01:16:00;;;;;;;8.68;7.88;;;12.60;99.90;;;;;;5037096;28;20048;-71
2022/06/23 01:18:46;;;;;;;;;;;12.60;99.90;;;;;;5050726;28;20040;-71
2022/06/23 01:21:21;;;;;;;8.68;7.57;;;12.60;99.90;;;;;;5056307;28;20390;-71
2022/06/23 01:24:07;;;;;;;8.90;8.00;;;12.60;99.90;;;;;;5068981;28;20068;-71
2022/06/23 01:26:54;;;;;;;9.27;8.10;;;12.60;99.90;;;;;;5055964;28;20123;-71
2022/06/23 01:29:33;;;;;;;9.55;8.27;;;12.60;99.90;;;;;;5055809;28;20040;-71
2022/06/23 01:32:12;;;;;;;9.77;8.35;;;12.60;99.90;;;;;;5037745;28;20119;-72
2022/06/23 01:34:48;;;;;;;11.18;9.38;;;12.60;99.90;;;;;;5035441;28;20029;-71
2022/06/23 01:37:39;;;;;;;12.25;8.93;;;12.60;99.90;;;;;;5054798;28;20093;-71
2022/06/23 01:40:17;;;;;;;8.80;7.90;;;12.50;99.90;;;;;;5055274;28;20080;-71
2022/06/23 01:42:54;;;;;;;10.02;8.60;;;12.50;99.90;;;;;;5022732;28;20045;-71
2022/06/23 01:45:38;;;;;;;9.80;8.80;;;12.50;99.90;;;;;;5061909;28;20105;-71
2022/06/23 01:51:28;;;;;;;9.40;8.40;;;12.50;99.90;;;;;;5042249;28;20630;-71
2022/06/23 01:54:07;;;;;;;9.95;8.85;;;12.40;99.90;;;;;;5045135;28;20048;-71
2022/06/23 01:56:51;;;;;;;10.50;8.82;;;12.40;99.90;;;;;;5055165;28;20534;-71
2022/06/23 01:59:31;;;;;;;13.05;10.25;;;12.40;99.90;;;;;;5054384;28;20032;-72
2022/06/23 02:02:11;;;;;;;11.52;10.18;;;12.40;99.90;;;;;;5035258;28;20466;-71
2022/06/23 02:04:57;;;;;;;11.15;9.45;;;12.30;99.90;;;;;;5049420;28;20104;-71
2022/06/23 02:07:36;;;;;;;11.30;9.80;;;12.30;99.90;;;;;;5051938;28;20115;-71
2022/06/23 02:10:33;;;;;;;13.07;9.90;;;12.30;99.90;;;;;;5050357;28;20076;-71
2022/06/23 02:13:11;;;;;;;9.95;8.95;;;12.30;99.90;;;;;;5037277;28;20804;-71
2022/06/23 02:15:49;;;;;;;11.63;9.27;;;12.30;99.90;;;;;;5019165;28;20082;-71
2022/06/23 02:18:46;;;;;;;11.93;9.35;;;12.30;99.90;;;;;;5041342;28;20119;-71
2022/06/23 02:21:32;;;;;;;10.95;8.73;;;12.40;99.90;;;;;;5033189;28;20543;-71
2022/06/23 02:24:15;;;;;;;10.40;9.30;;;12.40;99.90;;;;;;5032005;28;20075;-71
2022/06/23 02:26:48;;;;;;;11.52;9.98;;;12.30;99.90;;;;;;5038519;28;20123;-71
2022/06/23 02:29:23;;;;;;;10.98;9.68;;;12.30;99.90;;;;;;5054667;28;20390;-71
2022/06/23 02:31:55;;;;;;;13.35;9.40;;;12.30;99.90;;;;;;5049803;28;20040;-71
2022/06/23 02:34:35;;;;;;;11.25;9.50;;;12.30;99.90;;;;;;5053985;28;20044;-71
2022/06/23 02:37:38;;;;;;;13.43;10.57;;;12.30;99.90;;;;;;5045977;28;20095;-71
2022/06/23 02:40:04;;;;;;;13.27;10.25;;;12.40;99.90;;;;;;5052114;28;20115;-71
2022/06/23 02:42:37;;;;;;;13.73;10.27;;;12.30;99.90;;;;;;5030455;28;20041;-71
2022/06/23 02:45:33;;;;;;;13.85;10.50;;;12.40;99.90;;;;;;5051602;28;20764;-71
2022/06/23 02:47:59;;;;;;;13.10;10.75;;;12.40;99.90;;;;;;5054304;28;20569;-71
2022/06/23 02:50:54;;;;;;;14.90;11.07;;;12.40;99.90;;;;;;5053427;28;20119;-71
2022/06/23 02:53:52;;;;;;;13.05;10.32;;;12.50;99.90;;;;;;5054103;28;20090;-71
2022/06/23 02:56:25;;;;;;;15.07;11.63;;;12.50;99.90;;;;;;5052809;28;20041;-72
2022/06/23 02:59:13;;;;;;;15.73;12.23;;;12.50;99.90;;;;;;5053369;28;20068;-72
2022/06/23 03:01:55;;;;;;;14.25;12.07;;;12.50;99.90;;;;;;5036656;28;20052;-72
2022/06/23 03:04:29;;;;;;;14.50;11.90;;;12.50;99.90;;;;;;5034379;28;20475;-72
2022/06/23 03:07:20;;;;;;;13.73;11.82;;;12.50;99.90;;;;;;5052405;28;20611;-71
2022/06/23 03:09:52;;;;;;;15.75;12.15;;;12.50;99.90;;;;;;5049145;28;20082;-71
2022/06/23 03:12:21;;;;;;;;;;;12.40;99.90;;;;;;5053049;28;20612;-71
2022/06/23 03:14:56;;;;;;;17.98;12.45;;;12.50;99.90;;;;;;5044760;28;19963;-71
2022/06/23 03:17:34;;;;;;;18.67;12.90;;;12.40;99.90;;;;;;5053765;28;20378;-72
2022/06/23 03:20:13;;;;;;;19.00;13.45;;;12.40;99.90;;;;;;5070778;28;20033;-72
2022/06/23 03:23:00;;;;;;;17.58;13.82;;;12.50;99.90;;;;;;5052659;28;20045;-71
2022/06/23 03:25:41;;;;;;;18.15;12.98;;;12.50;99.90;;;;;;5043068;28;20040;-71
2022/06/23 03:28:19;;;;;;;19.95;13.68;;;12.50;99.90;;;;;;5034196;28;20681;-71
2022/06/23 03:30:54;;;;;;;19.17;13.85;;;12.50;99.90;;;;;;5051582;28;20040;-71
2022/06/23 03:33:50;;;;;;;17.70;13.32;;;12.60;99.90;;;;;;5053302;28;20080;-71
2022/06/23 03:36:34;;;;;;;19.30;14.05;;;12.60;99.90;;;;;;5046258;28;20052;-71
2022/06/23 03:42:13;;;;;;;18.83;14.95;;;12.60;99.90;;;;;;5046369;28;20102;-71
2022/06/23 03:45:03;;;;;;;20.75;14.60;;;12.60;99.90;;;;;;5045892;28;20098;-71
2022/06/23 03:47:40;;;;;;;16.08;13.23;;;12.60;99.90;;;;;;5048515;28;20052;-71
2022/06/23 03:50:20;;;;;;;16.67;13.38;;;12.60;99.90;;;;;;5045175;28;20036;-71
2022/06/23 03:52:56;;;;;;;15.07;12.98;;;12.70;99.90;;;;;;5036720;28;20037;-71
2022/06/23 03:55:23;;;;;;;17.17;13.32;;;12.70;99.90;;;;;;5035933;28;20123;-71
2022/06/23 03:57:58;;;;;;;17.48;13.43;;;12.80;99.90;;;;;;5051435;28;20115;-71
2022/06/23 04:00:36;;;;;;;16.63;13.18;;;12.80;99.90;;;;;;5031761;28;20541;-71
2022/06/23 04:03:18;;;;;;;15.25;12.80;;;12.80;99.90;;;;;;5066095;28;20040;-72
2022/06/23 04:05:56;;;;;;;19.83;14.30;;;12.80;99.90;;;;;;5039457;28;20044;-72
2022/06/23 04:08:53;;;;;;;18.95;14.00;;;12.80;99.90;;;;;;5051183;28;20037;-71
2022/06/23 04:14:09;;;;;;;16.05;13.40;;;12.90;99.90;;;;;;5052516;28;20045;-71
2022/06/23 04:16:36;;;;;;;17.88;13.65;;;13.00;99.90;;;;;;5052540;28;20040;-71
2022/06/23 04:19:19;;;;;;;16.38;13.60;;;12.90;99.90;;;;;;5047563;28;20513;-71
2022/06/23 04:21:47;;;;;;;15.75;13.23;;;13.00;99.90;;;;;;5047567;28;20048;-71
2022/06/23 04:24:19;;;;;;;17.92;13.77;;;13.00;99.90;;;;;;5077820;22;20140;-75
2022/06/23 04:26:46;;;;;;;;;;;13.10;99.90;;;;;;5091988;28;20031;-75
2022/06/23 04:29:22;;;;;;;19.10;13.95;;;13.10;99.90;;;;;;5092124;28;19922;-75
2022/06/23 04:31:55;;;;;;;15.60;12.88;;;13.20;99.90;;;;;;5075684;28;20047;-75
2022/06/23 04:34:27;;;;;;;14.77;12.40;;;13.20;99.90;;;;;;5089577;28;20036;-75
2022/06/23 04:36:53;;;;;;;15.32;12.55;;;13.30;99.90;;;;;;5086041;28;20032;-75
2022/06/23 04:39:39;;;;;;;15.75;14.05;;;13.30;99.90;;;;;;5077083;28;20042;-75
2022/06/23 04:42:21;;;;;;;16.75;13.35;;;13.30;99.90;;;;;;5092983;28;20043;-75
2022/06/23 04:44:48;;;;;;;16.63;14.13;;;13.40;99.90;;;;;;5061863;28;20028;-74
2022/06/23 04:47:22;;;;;;;17.17;13.13;;;13.50;99.90;;;;;;5093106;28;20070;-75
2022/06/23 04:49:50;;;;;;;16.27;12.73;;;13.60;99.90;;;;;;5083314;28;20170;-75
2022/06/23 04:52:18;;;;;;;16.33;13.43;;;13.60;99.90;;;;;;5087773;28;20039;-75
2022/06/23 04:54:58;;;;;;;15.70;13.43;;;13.70;99.90;;;;;;5093137;28;20040;-75
2022/06/23 04:57:37;;;;;;;14.95;13.45;;;13.70;99.90;;;;;;5093200;28;20093;-75
2022/06/23 05:00:04;;;;;;;14.27;12.68;;;13.80;99.90;;;;;;5078979;28;20518;-75
2022/06/23 05:02:29;;;;;;;13.90;12.02;;;13.90;99.90;;;;;;5076222;28;20040;-75
2022/06/23 05:05:03;;;;;;;16.75;14.05;;;13.90;99.90;;;;;;5066951;28;20396;-75
2022/06/23 05:07:34;;;;;;;16.42;13.90;;;14.00;99.90;;;;;;5056410;28;20405;-75
2022/06/23 05:10:04;;;;;;;17.33;12.88;;;14.00;99.90;;;;;;5072075;28;20039;-75
2022/06/23 05:12:35;;;;;;;15.25;13.50;;;14.00;99.90;;;;;;5072614;28;20044;-75
2022/06/23 05:15:10;;;;;;;14.90;13.32;;;14.10;99.90;;;;;;5075651;28;20480;-75
2022/06/23 05:17:43;;;;;;;14.95;13.35;;;14.20;99.90;;;;;;5083882;28;20201;-75
2022/06/23 05:20:32;;;;;;;17.50;13.75;;;14.30;99.90;;;;;;5072723;28;20036;-75
2022/06/23 05:22:58;;;;;;;16.35;12.75;;;14.30;99.90;;;;;;5089940;28;20059;-75
2022/06/23 05:25:38;;;;;;;15.40;12.68;;;14.40;99.90;;;;;;5088507;28;20055;-75
2022/06/23 05:28:11;;;;;;;15.80;14.15;;;14.50;99.90;;;;;;5088006;28;20374;-74
2022/06/23 05:30:46;;;;;;;14.25;12.82;;;14.60;99.90;;;;;;5077777;28;20039;-74
2022/06/23 05:33:17;;;;;;;16.13;13.73;;;14.70;99.90;;;;;;5092707;28;20499;-75
2022/06/23 05:35:50;;;;;;;15.47;13.90;;;14.80;99.90;;;;;;5092279;28;20043;-74
2022/06/23 05:38:34;;;;;;;14.85;13.35;;;14.90;99.90;;;;;;5092128;28;20288;-75
2022/06/23 05:41:22;;;;;;;14.13;12.73;;;15.00;99.90;;;;;;5089303;28;20036;-75
2022/06/23 05:43:50;;;;;;;14.98;13.30;;;15.10;99.90;;;;;;5069905;28;20051;-75
2022/06/23 05:46:26;;;;;;;16.83;13.38;;;15.30;99.90;;;;;;5095799;28;20039;-75
2022/06/23 05:49:11;;;;;;;13.45;12.05;;;15.70;99.90;;;;;;5082546;28;20047;-76
2022/06/23 05:51:46;;;;;;;14.68;12.48;;;17.40;99.90;;;;;;5095230;28;20384;-76
2022/06/23 05:54:25;;;;;;;11.63;10.55;;;19.40;99.90;;;;;;5084481;28;20047;-76
2022/06/23 05:56:55;;;;;;;12.18;11.02;;;20.90;99.90;;;;;;5088248;28;20051;-76
2022/06/23 05:59:26;;;;;;;11.38;10.27;;;22.10;99.90;;;;;;5089810;28;20091;-76
2022/06/23 06:02:10;;;;;;;11.25;10.23;;;23.10;99.90;;;;;;5090428;28;20059;-76
2022/06/23 06:04:43;;;;;;;11.15;10.05;;;24.30;99.80;;;;;;5059485;28;20479;-76
2022/06/23 06:07:10;;;;;;;10.20;9.10;;;;;;;;;;5090831;28;20051;-76
2022/06/23 06:09:40;;;;;;;10.25;9.25;;;25.60;95.10;;;;;;5096011;28;20043;-76
2022/06/23 06:12:21;;;;;;;10.93;9.82;;;26.20;94.40;;;;;;5095875;28;20404;-76
2022/06/23 06:14:54;;;;;;;10.50;8.60;;;26.40;93.30;;;;;;5095956;28;20032;-76
2022/06/23 06:17:24;;;;;;;9.73;8.93;;;26.90;91.40;;;;;;5092436;28;20090;-76
2022/06/23 06:19:52;;;;;;;9.73;8.82;;;27.10;90.90;;;;;;5095227;28;20472;-76
2022/06/23 06:22:44;;;;;;;9.82;9.02;;;27.10;91.00;;;;;;5095100;28;20544;-76
2022/06/23 06:25:27;;;;;;;9.10;8.30;;;27.70;90.40;;;;;;5075070;28;20644;-76
2022/06/23 06:27:55;;;;;;;9.18;8.32;;;27.70;90.30;;;;;;5063807;28;20068;-76
2022/06/23 06:30:30;;;;;;;8.75;7.95;;;;;;;;;;5094910;28;20035;-76
2022/06/23 06:32:57;;;;;;;9.40;8.52;;;28.20;87.00;;;;;;5083563;28;20046;-76
2022/06/23 06:35:43;;;;;;;8.05;7.25;;;28.80;84.00;;;;;;5078958;28;20380;-75
2022/06/23 06:38:12;;;;;;;10.68;8.10;;;28.90;82.30;;;;;;5111110;28;20044;-76
2022/06/23 06:40:38;;;;;;;8.80;8.05;;;29.40;81.10;;;;;;5095517;28;20493;-76
2022/06/23 06:43:15;;;;;;;9.40;8.48;;;29.40;78.80;;;;;;5091906;28;20085;-76
2022/06/23 06:45:41;;;;;;;8.75;7.90;;;29.30;78.50;;;;;;5075419;28;20556;-76
2022/06/23 06:48:21;;;;;;;7.97;7.28;;;29.60;78.40;;;;;;5089453;28;20044;-75
2022/06/23 06:50:51;;;;;;;8.50;7.70;;;29.80;78.00;;;;;;5095105;28;20047;-75
2022/06/23 06:53:27;;;;;;;8.02;7.22;;;29.90;78.00;;;;;;5112861;28;20035;-76
2022/06/23 06:56:04;;;;;;;7.95;7.15;;;30.30;77.00;;;;;;5077797;28;20125;-76
2022/06/23 06:58:41;;;;;;;7.38;6.88;;;30.60;78.60;;;;;;5090743;28;20041;-76
2022/06/23 07:01:19;;;;;;;8.10;7.28;;;31.00;72.30;;;;;;5077129;28;20088;-76
2022/06/23 07:03:47;;;;;;;8.65;7.95;;;30.70;74.20;;;;;;5092850;28;20043;-76
2022/06/23 07:06:36;;;;;;;7.75;7.05;;;31.00;74.70;;;;;;5094651;28;20053;-75
2022/06/23 07:09:25;;;;;;;7.28;6.65;;;31.20;71.60;;;;;;5085140;28;20054;-76
2022/06/23 07:12:00;;;;;;;7.35;6.75;;;31.00;71.60;;;;;;5072253;28;20031;-75
2022/06/23 07:14:38;;;;;;;7.30;6.60;;;31.30;70.80;;;;;;5083963;28;20078;-76
2022/06/23 07:17:09;;;;;;;7.75;5.93;;;30.80;70.10;;;;;;5074621;28;20043;-76
2022/06/23 07:19:44;;;;;;;6.43;5.85;;;31.20;71.50;;;;;;5094142;28;20048;-75
2022/06/23 07:22:17;;;;;;;6.32;5.75;;;31.30;69.60;;;;;;5092857;28;20071;-76
2022/06/23 07:25:05;;;;;;;6.25;5.70;;;31.40;70.50;;;;;;5093652;28;20063;-76
2022/06/23 07:27:57;;;;;;;6.45;5.95;;;30.90;70.50;;;;;;5075857;28;20476;-75
2022/06/23 07:30:55;;;;;;;6.05;5.45;;;30.90;69.30;;;;;;5074054;28;20374;-76
2022/06/23 07:33:40;;;;;;;5.72;5.20;;;30.50;69.80;;;;;;5071244;28;20478;-75
2022/06/23 07:36:12;;;;;;;6.25;5.70;;;30.90;68.10;;;;;;5089807;28;20079;-75
2022/06/23 07:39:03;;;;;;;6.60;5.55;;;30.50;68.90;;;;;;5080555;28;20039;-75
2022/06/23 07:41:50;;;;;;;6.55;5.95;;;30.50;68.60;;;;;;5092235;28;20046;-75
2022/06/23 07:44:39;;;;;;;5.78;4.63;;;31.10;67.60;;;;;;5075149;28;20503;-75
2022/06/23 07:47:05;;;;;;;5.68;5.15;;;31.40;69.80;;;;;;5094419;28;20046;-75
2022/06/23 07:49:32;;;;;;;6.50;4.88;;;31.40;67.90;;;;;;5077371;28;20035;-75
2022/06/23 07:51:59;;;;;;;5.78;5.28;;;32.00;66.20;;;;;;5094163;28;20040;-75
2022/06/23 07:54:25;;;;;;;6.93;5.40;;;32.20;66.70;;;;;;5093984;28;20071;-75
2022/06/23 07:56:52;;;;;;;6.05;4.72;;;32.20;65.70;;;;;;5092665;28;20035;-75
2022/06/23 07:59:23;;;;;;;6.10;5.18;;;32.20;64.70;;;;;;5092446;28;20039;-75
2022/06/23 08:01:54;;;;;;;7.00;6.25;;;32.40;65.00;;;;;;5088290;28;20044;-74
2022/06/23 08:04:38;;;;;;;7.07;5.57;;;31.70;63.80;;;;;;5068487;28;20031;-75
2022/06/23 08:07:10;;;;;;;6.63;5.93;;;30.60;65.70;;;;;;5074069;28;20996;-75
2022/06/23 08:09:48;;;;;;;7.07;6.45;;;30.50;66.40;;;;;;5089934;28;20024;-75
2022/06/23 08:18:32;;;;;;;7.88;5.78;;;28.70;69.70;;;;;;5093506;28;20052;-74
2022/06/23 08:21:12;;;;;;;8.38;6.93;;;28.40;69.90;;;;;;5091581;28;20043;-74
2022/06/23 08:23:54;;;;;;;7.85;6.68;;;27.90;71.90;;;;;;5077654;28;20070;-74
2022/06/23 08:26:22;;;;;;;7.15;6.10;;;27.30;74.40;;;;;;5089763;28;20043;-74
2022/06/23 08:28:52;;;;;;;6.47;5.78;;;27.10;73.00;;;;;;5073133;28;20035;-74
2022/06/23 08:31:19;;;;;;;6.65;5.93;;;26.80;74.90;;;;;;5092385;28;20425;-74
2022/06/23 08:33:45;;;;;;;7.32;6.63;;;26.50;76.00;;;;;;5092443;28;20366;-74
2022/06/23 08:36:15;;;;;;;6.95;6.07;;;26.50;74.60;;;;;;5092520;28;20039;-74
2022/06/23 08:38:49;;;;;;;6.75;6.25;;;26.30;76.30;;;;;;5109273;28;20043;-74
2022/06/23 08:41:15;;;;;;;7.13;5.50;;;26.40;75.10;;;;;;5092347;28;20545;-74
2022/06/23 08:43:49;;;;;;;7.47;6.65;;;26.30;76.30;;;;;;5092355;28;20047;-74
2022/06/23 08:46:23;;;;;;;7.13;6.43;;;26.10;77.20;;;;;;5069461;28;20102;-74
2022/06/23 08:49:19;;;;;;;7.85;7.13;;;26.10;76.50;;;;;;5055314;28;20416;-74
2022/06/23 08:52:03;;;;;;;6.70;6.10;;;26.00;77.20;;;;;;5081183;28;20116;-75
2022/06/23 08:54:52;;;;;;;6.32;5.82;;;25.90;78.90;;;;;;5087451;28;20393;-74
2022/06/23 08:57:32;;;;;;;6.30;5.70;;;25.80;80.30;;;;;;5089942;28;20142;-75
2022/06/23 08:59:58;;;;;;;7.50;6.80;;;25.80;81.30;;;;;;5085419;28;20123;-74
2022/06/23 09:02:46;;;;;;;7.60;6.47;;;25.70;79.10;;;;;;5073648;28;20487;-75
2022/06/23 09:05:14;;;;;;;6.38;5.78;;;25.80;80.70;;;;;;5089637;28;20059;-74
2022/06/23 09:07:51;;;;;;;7.38;6.22;;;25.90;78.20;;;;;;5089818;28;20100;-74
2022/06/23 09:10:25;;;;;;;7.65;6.38;;;25.90;80.80;;;;;;5078525;28;20028;-74
2022/06/23 09:13:20;;;;;;;7.22;5.80;;;25.90;79.50;;;;;;5078786;28;20388;-74
2022/06/23 09:16:20;;;;;;;6.70;5.72;;;25.90;80.00;;;;;;5058267;28;20071;-74
2022/06/23 09:19:13;;;;;;;5.90;4.90;;;26.10;77.60;;;;;;5082840;28;20036;-74
2022/06/23 09:21:50;;;;;;;6.53;5.00;;;26.20;80.00;;;;;;5084123;28;20039;-74
2022/06/23 09:24:25;;;;;;;5.22;4.72;;;26.10;79.70;;;;;;5094166;28;20059;-74
2022/06/23 09:27:00;;;;;;;5.28;4.78;;;26.10;77.60;;;;;;5092088;28;20043;-74
2022/06/23 09:29:45;;;;;;;6.85;5.10;;;26.10;78.00;;;;;;5093937;28;20487;-75
2022/06/23 09:32:30;;;;;;;7.50;4.30;;;26.20;78.70;;;;;;5089049;28;20112;-74
2022/06/23 09:35:12;;;;;;;6.22;4.90;;;26.40;78.70;;;;;;5092609;28;20044;-74
2022/06/23 09:37:44;;;;;;;8.82;4.90;;;26.50;77.00;;;;;;5094299;28;20070;-74
2022/06/23 09:40:38;;;;;;;8.15;4.90;;;26.50;78.90;;;;;;5092134;28;20035;-75
2022/06/23 09:43:29;;;;;;;5.00;4.50;;;26.50;77.60;;;;;;5088583;28;20130;-74
2022/06/23 09:46:09;;;;;;;4.90;4.07;;;26.70;76.40;;;;;;5088174;28;20088;-75
2022/06/23 09:48:52;;;;;;;5.38;4.53;;;26.80;75.80;;;;;;5085503;28;20124;-75
2022/06/23 09:51:36;;;;;;;6.75;3.20;;;26.70;75.90;;;;;;5067270;28;20036;-74
2022/06/23 09:54:26;;;;;;;5.28;3.30;;;26.80;74.10;;;;;;5086249;28;20415;-73
2022/06/23 09:57:10;;;;;;;4.63;3.83;;;26.90;75.70;;;;;;5090925;28;20031;-71
2022/06/23 09:59:48;;;;;;;3.90;3.38;;;27.00;74.80;;;;;;5109969;28;20093;-70
2022/06/23 10:02:37;;;;;;;7.90;3.20;;;27.00;75.30;;;;;;5089529;28;20050;-71
2022/06/23 10:05:32;;;;;;;4.28;3.03;;;27.20;74.80;;;;;;5087134;28;20039;-71
2022/06/23 10:08:06;;;;;;;4.03;2.55;;;27.40;74.40;;;;;;5089109;28;20433;-71
2022/06/23 10:10:50;;;;;;;5.13;2.95;;;27.40;72.20;;;;;;5076082;28;20046;-71
2022/06/23 10:13:28;;;;;;;3.58;2.53;;;27.40;72.00;;;;;;5092328;28;20039;-71
2022/06/23 10:16:07;;;;;;;3.55;2.60;;;27.30;71.50;;;;;;5076182;28;20035;-71
2022/06/23 10:19:10;;;;;;;5.35;2.63;;;27.40;72.60;;;;;;5076744;28;20097;-71
2022/06/23 10:21:58;;;;;;;5.38;2.70;;;27.30;72.20;;;;;;5086525;28;20065;-71
2022/06/23 10:24:55;;;;;;;4.90;2.60;;;27.50;72.10;;;;;;5077291;28;20059;-71
2022/06/23 10:27:21;;;;;;;4.45;2.55;;;27.70;70.40;;;;;;5072938;28;20534;-71
2022/06/23 10:29:58;;;;;;;3.22;2.65;;;27.70;69.40;;;;;;5082188;28;20130;-72
2022/06/23 10:33:03;;;;;;;3.75;2.40;;;27.70;70.90;;;;;;5095225;28;20047;-71
2022/06/23 10:36:05;;;;;;;3.30;2.40;;;27.80;70.90;;;;;;5093430;28;20248;-71
2022/06/23 10:38:54;;;;;;;5.05;2.67;;;28.00;71.50;;;;;;5094401;28;20044;-71
2022/06/23 10:41:34;;;;;;;4.05;2.30;;;28.00;68.40;;;;;;5092358;28;20077;-71
2022/06/23 10:44:29;;;;;;;3.40;2.13;;;28.10;69.30;;;;;;5084745;28;20044;-75
2022/06/23 10:47:11;;;;;;;3.80;2.30;;;28.20;70.00;;;;;;5090032;28;20071;-75
2022/06/23 10:50:17;;;;;;;4.18;2.35;;;28.30;70.00;;;;;;5073614;28;20047;-75
2022/06/23 10:53:06;;;;;;;4.35;2.53;;;28.50;69.40;;;;;;5092211;28;20131;-75
2022/06/23 10:55:55;;;;;;;2.75;2.00;;;28.60;69.00;;;;;;5060448;28;20338;-75
2022/06/23 10:58:52;;;;;;;3.35;2.10;;;28.70;68.50;;;;;;5083240;28;20039;-74
2022/06/23 11:01:53;;;;;;;2.63;2.10;;;28.50;65.20;;;;;;5074022;28;20069;-74
2022/06/23 11:04:37;;;;;;;3.30;2.03;;;28.60;68.10;;;;;;5054161;28;20059;-76
2022/06/23 11:07:12;;;;;;;2.88;2.00;;;28.80;67.80;;;;;;5094358;28;20052;-75
2022/06/23 11:09:56;;;;;;;2.95;1.90;;;28.90;67.40;;;;;;5086101;28;20043;-75
2022/06/23 11:12:52;;;;;;;3.30;2.10;;;29.00;64.40;;;;;;5101693;28;20032;-72
2022/06/23 11:15:25;;;;;;;5.10;2.20;;;29.00;66.10;;;;;;5073011;28;20099;-73
2022/06/23 11:18:15;;;;;;;4.30;2.38;;;29.00;65.60;;;;;;5075793;28;20080;-73
2022/06/23 11:21:03;;;;;;;2.58;2.13;;;28.90;64.30;;;;;;5086577;28;20488;-72
2022/06/23 11:23:51;;;;;;;3.33;1.95;;;29.00;65.50;;;;;;5068047;28;20055;-72
2022/06/23 11:26:37;;;;;;;5.60;2.00;;;29.10;65.60;;;;;;5087435;28;20070;-73
2022/06/23 11:29:11;;;;;;;3.75;1.90;;;29.20;63.20;;;;;;5083715;28;20090;-74
2022/06/23 11:32:08;;;;;;;4.10;1.98;;;29.30;66.50;;;;;;5077274;28;20036;-74
2022/06/23 11:35:04;;;;;;;2.17;1.80;;;29.50;64.80;;;;;;5081403;28;20415;-74
2022/06/23 11:37:54;;;;;;;2.75;2.05;;;29.50;63.40;;;;;;5058197;28;20134;-74
2022/06/23 11:40:34;;;;;;;5.63;2.03;;;29.50;63.40;;;;;;5090527;28;20047;-73
2022/06/23 11:43:05;;;;;;;2.85;1.60;;;29.70;64.50;;;;;;5087185;28;20048;-73
2022/06/23 11:45:46;;;;;;;2.05;1.77;;;29.60;62.80;;;;;;5071690;28;20043;-74
2022/06/23 11:48:33;;;;;;;2.50;1.85;;;29.70;60.60;;;;;;5088001;28;22000;-73
2022/06/23 11:51:05;;;;;;;4.13;2.03;;;29.70;59.10;;;;;;5083765;28;20039;-73
2022/06/23 11:53:53;;;;;;;3.08;1.90;;;29.70;62.30;;;;;;5095424;28;20548;-74
2022/06/23 11:57:13;;;;;;;3.58;1.95;;;29.80;62.90;;;;;;5093670;28;20032;-74
2022/06/23 12:00:02;;;;;;;3.80;1.73;;;30.00;63.00;;;;;;5035515;28;20051;-73
2022/06/23 12:02:28;;;;;;;4.20;1.92;;;30.10;61.80;;;;;;5091542;27;20372;-75
2022/06/23 12:05:02;;;;;;;4.47;1.67;;;30.00;61.70;;;;;;5074752;28;20461;-74
2022/06/23 12:07:59;;;;;;;3.78;2.00;;;30.20;62.90;;;;;;5082413;28;20055;-70
2022/06/23 12:10:27;;;;;;;2.33;1.70;;;30.30;62.10;;;;;;5073371;28;20039;-70
2022/06/23 12:12:56;;;;;;;3.63;1.88;;;30.20;60.10;;;;;;5091558;28;20066;-71
2022/06/23 12:15:26;;;;;;;2.70;1.92;;;30.20;61.40;;;;;;5089723;28;20071;-71
2022/06/23 12:18:09;;;;;;;3.60;1.70;;;30.30;61.10;;;;;;5091911;28;20494;-70
2022/06/23 12:20:51;;;;;;;2.35;1.52;;;30.40;59.80;;;;;;5091845;28;20069;-71
2022/06/23 12:23:42;;;;;;;5.20;1.95;;;30.40;58.70;;;;;;5093089;28;20035;-70
2022/06/23 12:26:22;;;;;;;3.00;1.80;;;30.30;58.90;;;;;;5093194;28;20096;-70
2022/06/23 12:29:02;;;;;;;3.95;1.60;;;30.40;60.90;;;;;;5091892;28;20043;-70
2022/06/23 12:31:34;;;;;;;3.15;1.98;;;30.40;57.90;;;;;;5083491;28;20085;-70
2022/06/23 12:34:24;;;;;;;2.92;1.63;;;30.40;60.50;;;;;;5073079;28;20043;-71
2022/06/23 12:36:56;;;;;;;3.58;1.80;;;30.60;62.10;;;;;;5074218;28;20040;-71
2022/06/23 12:39:51;;;;;;;2.53;1.85;;;30.70;60.90;;;;;;5071956;28;20040;-70
2022/06/23 12:42:46;;;;;;;2.45;1.83;;;30.70;60.30;;;;;;5079014;28;20032;-70
2022/06/23 12:45:30;;;;;;;3.38;1.90;;;30.70;60.60;;;;;;5053696;28;20126;-70
2022/06/23 12:47:55;;;;;;;2.67;1.80;;;30.90;61.90;;;;;;5093010;28;20051;-70
2022/06/23 12:50:47;;;;;;;2.85;1.80;;;30.90;57.80;;;;;;5092121;28;20148;-70
2022/06/23 12:53:54;;;;;;;2.15;1.77;;;30.90;59.80;;;;;;5082142;28;20051;-70
2022/06/23 12:56:29;;;;;;;3.25;1.80;;;31.00;57.30;;;;;;5096292;28;20031;-70
2022/06/23 12:59:03;;;;;;;4.95;1.83;;;31.00;59.80;;;;;;5096641;28;20047;-70
2022/06/23 13:01:37;;;;;;;2.58;1.50;;;31.00;57.00;;;;;;5084112;28;20071;-70
2022/06/23 13:04:21;;;;;;;2.08;1.70;;;31.10;57.10;;;;;;5075931;28;20051;-70
2022/06/23 13:06:59;;;;;;;4.10;1.80;;;31.20;57.80;;;;;;5086131;28;20384;-71
2022/06/23 13:09:49;;;;;;;2.05;1.75;;;31.30;56.90;;;;;;5093533;28;20130;-70
2022/06/23 13:12:25;;;;;;;3.25;2.00;;;31.20;56.70;;;;;;5096603;28;20042;-70
2022/06/23 13:15:06;;;;;;;1.98;1.67;;;31.20;56.80;;;;;;5091716;28;20044;-72
2022/06/23 13:17:42;;;;;;;3.38;1.90;;;31.20;57.90;;;;;;5096984;28;20077;-70
2022/06/23 13:20:29;;;;;;;4.88;2.28;;;31.10;56.70;;;;;;5096518;28;20476;-71
2022/06/23 13:23:01;;;;;;;4.65;1.77;;;31.00;58.60;;;;;;5096945;28;20055;-71
2022/06/23 13:25:33;;;;;;;2.15;1.70;;;31.10;57.70;;;;;;5078022;28;20377;-71
2022/06/23 13:27:59;;;;;;;2.50;1.80;;;31.20;57.80;;;;;;5096808;28;20067;-71
2022/06/23 13:30:29;;;;;;;2.65;1.90;;;31.30;58.10;;;;;;5079648;28;20058;-71
2022/06/23 13:33:03;;;;;;;2.25;2.00;;;31.30;57.00;;;;;;5076023;28;20110;-71
2022/06/23 13:35:53;;;;;;;3.42;2.00;;;31.30;54.80;;;;;;5093755;28;20462;-70
2022/06/23 13:38:40;;;;;;;3.15;1.90;;;31.40;59.00;;;;;;5101135;27;20111;-71
2022/06/23 13:41:15;;;;;;;2.72;1.77;;;31.40;56.30;;;;;;5103393;28;20078;-71
2022/06/23 13:44:11;;;;;;;3.35;1.80;;;31.40;57.30;;;;;;5077628;28;20083;-71
2022/06/23 13:46:50;;;;;;;2.03;1.83;;;31.60;57.20;;;;;;5078257;28;20047;-71
2022/06/23 13:49:35;;;;;;;3.38;1.80;;;31.60;57.00;;;;;;5082273;28;20449;-71
2022/06/23 13:52:32;;;;;;;3.67;2.03;;;31.70;54.80;;;;;;5093869;28;20032;-71
2022/06/23 13:55:11;;;;;;;2.92;2.30;;;31.80;57.60;;;;;;5092030;28;20035;-71
2022/06/23 13:58:01;;;;;;;3.00;1.90;;;31.70;54.70;;;;;;5078162;28;20044;-71
2022/06/23 14:00:32;;;;;;;3.28;2.10;;;31.70;54.70;;;;;;5094049;28;20036;-71
2022/06/23 14:03:26;;;;;;;3.40;1.80;;;31.80;57.70;;;;;;5071974;28;20047;-71